createdAt,value
2017-10-04T00:02:20.114Z,1.40
2017-10-04T00:04:47.709Z,2.10
2017-10-04T00:07:15.266Z,1.60
2017-10-04T00:09:43.616Z,1.20
2017-10-04T00:12:11.093Z,3.08
2017-10-04T00:14:38.574Z,1.58
2017-10-04T00:17:06.824Z,1.98
2017-10-04T00:19:34.292Z,2.00
2017-10-04T00:22:02.568Z,2.28
2017-10-04T00:24:30.829Z,1.50
2017-10-04T00:26:58.392Z,2.50
2017-10-04T00:29:26.641Z,1.60
2017-10-04T00:31:54.112Z,2.00
2017-10-04T00:34:21.597Z,1.73
2017-10-04T00:36:49.913Z,1.45
2017-10-04T00:39:17.401Z,1.65
2017-10-04T00:41:44.963Z,1.98
2017-10-04T00:44:12.453Z,2.25
2017-10-04T00:46:39.985Z,1.92
2017-10-04T00:49:07.537Z,1.50
2017-10-04T00:51:35.018Z,2.40
2017-10-04T00:54:03.256Z,2.20
2017-10-04T00:56:30.725Z,1.37
2017-10-04T00:58:58.290Z,1.73
2017-10-04T01:01:25.775Z,2.00
2017-10-04T01:03:53.306Z,1.83
2017-10-04T01:06:20.857Z,1.65
2017-10-04T01:08:48.416Z,1.55
2017-10-04T01:11:15.881Z,2.50
2017-10-04T01:13:43.367Z,1.60
2017-10-04T01:16:10.829Z,1.42
2017-10-04T01:18:38.302Z,2.05
2017-10-04T01:21:05.863Z,1.55
2017-10-04T01:23:33.364Z,2.03
2017-10-04T01:26:00.836Z,1.98
2017-10-04T01:28:29.077Z,1.87
2017-10-04T01:30:56.541Z,1.60
2017-10-04T01:33:24.023Z,2.40
2017-10-04T01:35:52.288Z,1.60
2017-10-04T01:38:19.849Z,1.95
2017-10-04T01:40:47.320Z,1.73
2017-10-04T01:43:15.563Z,1.23
2017-10-04T01:45:43.133Z,2.00
2017-10-04T01:48:10.614Z,2.00
2017-10-04T01:50:38.851Z,1.75
2017-10-04T01:53:06.309Z,2.20
2017-10-04T01:55:34.553Z,2.53
2017-10-04T01:58:02.008Z,2.40
2017-10-04T02:00:29.497Z,2.25
2017-10-04T02:02:57.793Z,1.80
2017-10-04T02:05:26.036Z,2.90
2017-10-04T02:07:53.512Z,2.00
2017-10-04T02:10:21.136Z,2.75
2017-10-04T02:12:48.610Z,1.80
2017-10-04T02:15:16.089Z,1.55
2017-10-04T02:17:44.377Z,1.83
2017-10-04T02:20:11.850Z,2.03
2017-10-04T02:22:40.101Z,2.08
2017-10-04T02:25:07.576Z,2.12
2017-10-04T02:27:35.799Z,2.35
2017-10-04T02:30:03.345Z,2.15
2017-10-04T02:32:30.904Z,2.45
2017-10-04T02:34:58.402Z,2.15
2017-10-04T02:37:25.881Z,2.10
2017-10-04T02:39:54.132Z,2.10
2017-10-04T02:42:21.613Z,2.42
2017-10-04T02:44:49.869Z,1.65
2017-10-04T02:47:17.345Z,2.22
2017-10-04T02:49:45.597Z,1.80
2017-10-04T02:52:13.078Z,2.42
2017-10-04T02:54:41.301Z,2.00
2017-10-04T02:57:08.785Z,2.20
2017-10-04T02:59:36.269Z,2.60
2017-10-04T03:02:04.547Z,2.85
2017-10-04T03:04:32.863Z,2.15
2017-10-04T03:07:00.325Z,2.12
2017-10-04T03:09:27.815Z,1.95
2017-10-04T03:11:55.375Z,2.45
2017-10-04T03:14:22.933Z,3.00
2017-10-04T03:16:50.497Z,2.58
2017-10-04T03:19:18.008Z,2.08
2017-10-04T03:21:45.488Z,2.90
2017-10-04T03:24:12.969Z,1.90
2017-10-04T03:26:40.510Z,2.40
2017-10-04T03:29:07.993Z,2.40
2017-10-04T03:31:36.249Z,2.95
2017-10-04T03:34:03.805Z,2.15
2017-10-04T03:36:31.284Z,2.00
2017-10-04T03:38:59.540Z,3.55
2017-10-04T03:41:27.778Z,2.22
2017-10-04T03:43:55.249Z,2.62
2017-10-04T03:46:22.716Z,2.37
2017-10-04T03:48:50.208Z,3.28
2017-10-04T03:51:18.522Z,2.67
2017-10-04T03:53:45.988Z,2.37
2017-10-04T03:56:13.457Z,2.85
2017-10-04T03:58:40.928Z,2.97
2017-10-04T04:01:08.405Z,2.53
2017-10-04T04:03:36.682Z,2.92
2017-10-04T04:06:04.934Z,2.65
2017-10-04T04:08:32.416Z,3.22
2017-10-04T04:11:00.678Z,2.67
2017-10-04T04:13:28.187Z,3.62
2017-10-04T04:15:55.652Z,2.35
2017-10-04T04:18:23.152Z,3.87
2017-10-04T04:20:50.624Z,2.47
2017-10-04T04:23:18.898Z,2.90
2017-10-04T04:25:47.267Z,3.08
2017-10-04T04:28:14.837Z,2.70
2017-10-04T04:30:43.058Z,2.62
2017-10-04T04:33:10.551Z,2.72
2017-10-04T04:35:38.104Z,3.53
2017-10-04T04:38:17.593Z,3.08
2017-10-04T04:40:45.073Z,2.40
2017-10-04T04:43:12.560Z,2.70
2017-10-04T04:45:40.118Z,2.83
2017-10-04T04:48:07.670Z,2.97
2017-10-04T04:50:35.930Z,3.00
2017-10-04T04:53:03.470Z,2.65
2017-10-04T04:55:30.956Z,3.30
2017-10-04T04:57:58.437Z,3.33
2017-10-04T05:00:26.697Z,3.00
2017-10-04T05:02:54.248Z,2.25
2017-10-04T05:05:23.249Z,3.08
2017-10-04T05:07:50.809Z,3.00
2017-10-04T05:10:18.373Z,3.00
2017-10-04T05:12:45.925Z,2.53
2017-10-04T05:15:13.437Z,3.08
2017-10-04T05:17:40.937Z,2.85
2017-10-04T05:20:08.526Z,2.83
2017-10-04T05:22:36.757Z,3.70
2017-10-04T05:25:04.320Z,2.78
2017-10-04T05:27:31.793Z,4.57
2017-10-04T05:29:59.348Z,3.12
2017-10-04T05:32:26.905Z,2.83
2017-10-04T05:34:54.375Z,3.50
2017-10-04T05:37:22.641Z,2.78
2017-10-04T05:39:50.288Z,3.80
2017-10-04T05:42:17.758Z,2.65
2017-10-04T05:44:45.313Z,3.75
2017-10-04T05:47:12.771Z,3.12
2017-10-04T05:49:40.329Z,3.17
2017-10-04T05:52:07.802Z,2.90
2017-10-04T05:54:36.064Z,3.20
2017-10-04T05:57:03.626Z,3.28
2017-10-04T05:59:31.080Z,4.75
2017-10-04T06:01:58.693Z,3.05
2017-10-04T06:04:26.153Z,2.42
2017-10-04T06:06:53.656Z,2.90
2017-10-04T06:09:21.205Z,3.80
2017-10-04T06:11:49.480Z,3.15
2017-10-04T06:14:16.954Z,2.90
2017-10-04T06:16:44.425Z,4.37
2017-10-04T06:19:12.659Z,3.37
2017-10-04T06:21:40.129Z,2.60
2017-10-04T06:24:07.690Z,2.85
2017-10-04T06:26:35.185Z,4.68
2017-10-04T06:29:02.664Z,3.60
2017-10-04T06:31:30.165Z,2.65
2017-10-04T06:33:57.637Z,2.60
2017-10-04T06:36:25.885Z,2.90
2017-10-04T06:38:53.364Z,3.12
2017-10-04T06:41:21.628Z,2.83
2017-10-04T06:43:49.918Z,2.83
2017-10-04T06:46:18.196Z,2.72
2017-10-04T06:48:46.437Z,2.70
2017-10-04T06:51:13.906Z,3.08
2017-10-04T06:53:41.384Z,3.03
2017-10-04T06:56:09.663Z,3.30
2017-10-04T06:58:37.120Z,2.80
2017-10-04T07:01:05.360Z,2.60
2017-10-04T07:03:32.821Z,2.93
2017-10-04T07:06:00.392Z,2.77
2017-10-04T07:08:27.947Z,2.80
2017-10-04T07:10:55.498Z,2.40
2017-10-04T07:13:23.058Z,2.93
2017-10-04T07:15:51.456Z,3.07
2017-10-04T07:18:18.928Z,3.00
2017-10-04T07:20:46.404Z,2.90
2017-10-04T07:23:13.879Z,2.72
2017-10-04T07:25:41.345Z,2.83
2017-10-04T07:28:08.808Z,2.60
2017-10-04T07:30:36.285Z,3.03
2017-10-04T07:33:03.836Z,3.10
2017-10-04T07:35:31.393Z,3.07
2017-10-04T07:37:58.966Z,3.00
2017-10-04T07:40:26.412Z,2.77
2017-10-04T07:42:53.893Z,3.57
2017-10-04T07:45:22.148Z,3.97
2017-10-04T07:47:50.481Z,3.13
2017-10-04T07:50:17.986Z,3.03
2017-10-04T07:52:46.963Z,3.10
2017-10-04T07:55:14.487Z,2.50
2017-10-04T07:57:41.956Z,3.03
2017-10-04T08:00:09.427Z,3.40
2017-10-04T08:02:36.909Z,2.20
2017-10-04T08:05:04.373Z,2.50
2017-10-04T08:07:32.692Z,2.80
2017-10-04T08:10:00.197Z,2.97
2017-10-04T08:12:27.750Z,3.13
2017-10-04T08:14:55.224Z,2.97
2017-10-04T08:17:23.449Z,3.07
2017-10-04T08:19:50.997Z,2.80
2017-10-04T08:22:18.505Z,2.53
2017-10-04T08:24:45.985Z,3.03
2017-10-04T08:27:14.224Z,2.57
2017-10-04T08:29:41.721Z,2.63
2017-10-04T08:32:09.185Z,2.80
2017-10-04T08:34:36.644Z,1.83
2017-10-04T08:37:04.110Z,2.80
2017-10-04T08:39:31.589Z,2.17
2017-10-04T08:41:59.130Z,2.40
2017-10-04T08:44:26.606Z,2.53
2017-10-04T08:46:55.000Z,2.93
2017-10-04T08:49:22.560Z,4.00
2017-10-04T08:51:50.125Z,2.33
2017-10-04T08:54:17.596Z,2.73
2017-10-04T08:56:45.857Z,2.70
2017-10-04T08:59:13.321Z,2.10
2017-10-04T09:01:40.793Z,2.70
2017-10-04T09:07:02.509Z,2.73
2017-10-04T09:09:29.978Z,2.80
2017-10-04T09:11:57.459Z,3.50
2017-10-04T09:14:25.684Z,2.40
2017-10-04T09:16:53.165Z,1.90
2017-10-04T09:19:20.633Z,2.37
2017-10-04T09:21:48.892Z,3.33
2017-10-04T09:24:16.350Z,2.33
2017-10-04T09:26:43.829Z,2.70
2017-10-04T09:29:12.062Z,3.00
2017-10-04T09:31:39.533Z,3.43
2017-10-04T09:34:07.001Z,2.37
2017-10-04T09:36:34.469Z,2.63
2017-10-04T09:39:02.708Z,2.60
2017-10-04T09:41:30.168Z,3.07
2017-10-04T09:43:57.637Z,3.40
2017-10-04T09:46:25.105Z,2.73
2017-10-04T09:48:53.336Z,2.37
2017-10-04T09:51:20.816Z,3.00
2017-10-04T09:53:48.376Z,2.50
2017-10-04T09:56:15.942Z,2.70
2017-10-04T09:58:44.185Z,3.07
2017-10-04T10:01:11.640Z,2.73
2017-10-04T10:03:39.499Z,2.80
2017-10-04T10:06:07.017Z,2.43
2017-10-04T10:08:35.289Z,2.50
2017-10-04T10:11:03.529Z,2.80
2017-10-04T10:13:31.529Z,2.70
2017-10-04T10:15:59.337Z,3.00
2017-10-04T10:18:27.625Z,3.30
2017-10-04T10:20:55.081Z,2.47
2017-10-04T10:23:22.574Z,2.70
2017-10-04T10:25:50.032Z,2.67
2017-10-04T10:28:17.501Z,3.80
2017-10-04T10:30:45.733Z,3.10
2017-10-04T10:33:13.213Z,2.63
2017-10-04T10:35:40.789Z,3.53
2017-10-04T10:38:09.026Z,2.73
2017-10-04T10:40:36.488Z,2.80
2017-10-04T10:43:04.021Z,2.40
2017-10-04T10:45:31.492Z,2.63
2017-10-04T10:47:58.974Z,3.40
2017-10-04T10:50:26.429Z,2.30
2017-10-04T10:52:54.002Z,2.97
2017-10-04T10:55:21.559Z,3.63
2017-10-04T10:57:49.105Z,3.33
2017-10-04T11:00:16.663Z,2.63
2017-10-04T11:02:44.741Z,3.00
2017-10-04T11:05:12.207Z,3.47
2017-10-04T11:07:39.664Z,2.37
2017-10-04T11:10:07.920Z,3.23
2017-10-04T11:12:35.380Z,2.80
2017-10-04T11:15:02.841Z,2.87
2017-10-04T11:17:30.305Z,3.40
2017-10-04T11:19:57.853Z,3.20
2017-10-04T11:22:25.352Z,3.03
2017-10-04T11:24:52.869Z,3.23
2017-10-04T11:27:20.385Z,3.10
2017-10-04T11:29:47.898Z,3.23
2017-10-04T11:32:15.473Z,3.47
2017-10-04T11:34:43.724Z,2.53
2017-10-04T11:37:11.190Z,4.10
2017-10-04T11:39:39.442Z,3.20
2017-10-04T11:42:07.014Z,3.87
2017-10-04T11:44:34.477Z,3.43
2017-10-04T11:47:01.932Z,3.10
2017-10-04T11:49:29.398Z,3.60
2017-10-04T11:51:57.625Z,3.10
2017-10-04T11:54:25.100Z,3.70
2017-10-04T11:56:52.730Z,4.00
2017-10-04T11:59:20.228Z,2.53
2017-10-04T12:01:47.758Z,3.53
2017-10-04T12:04:15.241Z,2.97
2017-10-04T12:06:43.516Z,2.90
2017-10-04T12:09:11.105Z,3.60
2017-10-04T12:11:39.409Z,3.37
2017-10-04T12:14:06.970Z,3.03
2017-10-04T12:16:34.421Z,2.67
2017-10-04T12:19:01.956Z,2.43
2017-10-04T12:21:30.181Z,2.70
2017-10-04T12:23:58.025Z,3.53
2017-10-04T12:26:25.486Z,2.80
2017-10-04T12:28:52.992Z,3.10
2017-10-04T12:31:21.252Z,3.50
2017-10-04T12:33:48.721Z,3.00
2017-10-04T12:36:16.284Z,3.20
2017-10-04T12:38:43.922Z,3.10
2017-10-04T12:41:11.406Z,3.10
2017-10-04T12:43:39.637Z,3.40
2017-10-04T12:46:07.140Z,3.20
2017-10-04T12:48:35.382Z,3.27
2017-10-04T12:51:02.841Z,2.40
2017-10-04T12:53:30.371Z,2.43
2017-10-04T12:55:57.873Z,2.57
2017-10-04T12:58:25.341Z,2.20
2017-10-04T13:00:53.603Z,2.83
2017-10-04T13:03:21.883Z,2.50
2017-10-04T13:05:49.452Z,2.80
2017-10-04T13:08:17.012Z,2.73
2017-10-04T13:10:44.572Z,3.40
2017-10-04T13:13:12.836Z,2.47
2017-10-04T13:15:40.310Z,2.40
2017-10-04T13:18:08.568Z,3.13
2017-10-04T13:20:36.131Z,4.00
2017-10-04T13:23:04.369Z,4.10
2017-10-04T13:25:32.019Z,2.97
2017-10-04T13:27:59.487Z,3.07
2017-10-04T13:30:26.969Z,2.67
2017-10-04T13:32:54.433Z,2.57
2017-10-04T13:35:21.909Z,2.50
2017-10-04T13:37:50.132Z,2.40
2017-10-04T13:40:17.617Z,2.60
2017-10-04T13:42:45.080Z,2.40
2017-10-04T13:45:12.568Z,2.50
2017-10-04T13:47:40.030Z,2.97
2017-10-04T13:50:07.545Z,2.67
2017-10-04T13:52:35.025Z,2.23
2017-10-04T13:55:03.252Z,2.60
2017-10-04T13:57:30.709Z,2.73
2017-10-04T13:59:58.190Z,1.90
2017-10-04T14:02:25.703Z,2.67
2017-10-04T14:04:53.172Z,3.03
2017-10-04T14:07:20.716Z,2.87
2017-10-04T14:09:48.225Z,2.20
2017-10-04T14:12:15.834Z,2.40
2017-10-04T14:14:43.303Z,2.90
2017-10-04T14:17:10.781Z,2.67
2017-10-04T14:19:38.253Z,3.20
2017-10-04T14:22:05.809Z,2.83
2017-10-04T14:24:33.281Z,4.07
2017-10-04T14:27:01.526Z,3.50
2017-10-04T14:29:28.995Z,2.87
2017-10-04T14:31:56.456Z,2.93
2017-10-04T14:34:24.744Z,3.00
2017-10-04T14:36:53.010Z,2.10
2017-10-04T14:39:20.564Z,3.10
2017-10-04T14:41:48.252Z,2.80
2017-10-04T14:44:16.502Z,2.93
2017-10-04T14:46:44.065Z,2.83
2017-10-04T14:49:12.293Z,2.43
2017-10-04T14:51:39.749Z,2.93
2017-10-04T14:54:07.228Z,3.23
2017-10-04T14:56:34.696Z,2.77
2017-10-04T14:59:02.181Z,2.73
2017-10-04T15:01:30.423Z,2.97
2017-10-04T15:03:57.890Z,2.60
2017-10-04T15:06:25.383Z,2.43
2017-10-04T15:08:52.895Z,3.40
2017-10-04T15:11:20.522Z,2.70
2017-10-04T15:13:47.972Z,2.13
2017-10-04T15:16:15.434Z,2.83
2017-10-04T15:18:42.901Z,2.33
2017-10-04T15:21:10.381Z,3.40
2017-10-04T15:23:37.861Z,3.67
2017-10-04T15:26:06.182Z,2.70
2017-10-04T15:28:33.686Z,3.00
2017-10-04T15:31:01.156Z,2.90
2017-10-04T15:33:29.402Z,3.00
2017-10-04T15:35:56.977Z,2.77
2017-10-04T15:38:24.463Z,2.37
2017-10-04T15:40:52.702Z,2.73
2017-10-04T15:43:20.931Z,2.70
2017-10-04T15:45:48.390Z,2.83
2017-10-04T15:48:15.863Z,2.60
2017-10-04T15:50:43.347Z,2.60
2017-10-04T15:53:10.841Z,2.73
2017-10-04T15:55:38.310Z,3.33
2017-10-04T15:58:05.784Z,2.50
2017-10-04T16:00:33.244Z,2.50
2017-10-04T16:03:00.717Z,2.83
2017-10-04T16:05:28.178Z,3.30
2017-10-04T16:07:55.650Z,2.27
2017-10-04T16:10:23.112Z,3.10
2017-10-04T16:12:50.671Z,2.67
2017-10-04T16:15:18.133Z,2.97
2017-10-04T16:17:45.717Z,3.10
2017-10-04T16:20:14.170Z,3.17
2017-10-04T16:22:41.639Z,3.10
2017-10-04T16:25:09.869Z,2.70
2017-10-04T16:27:37.349Z,2.57
2017-10-04T16:30:04.912Z,2.83
2017-10-04T16:32:32.374Z,2.80
2017-10-04T16:34:59.846Z,3.77
2017-10-04T16:37:28.093Z,3.00
2017-10-04T16:39:55.576Z,3.30
2017-10-04T16:42:23.804Z,3.37
2017-10-04T16:44:51.491Z,3.93
2017-10-04T16:47:18.944Z,2.80
2017-10-04T16:49:46.421Z,3.20
2017-10-04T16:52:14.662Z,2.80
2017-10-04T16:54:42.129Z,3.40
2017-10-04T16:57:09.593Z,3.20
2017-10-04T16:59:37.062Z,4.37
2017-10-04T17:02:05.296Z,3.43
2017-10-04T17:04:32.784Z,4.03
2017-10-04T17:07:00.242Z,3.80
2017-10-04T17:09:28.500Z,3.93
2017-10-04T17:11:56.018Z,2.80
2017-10-04T17:14:23.496Z,3.43
2017-10-04T17:16:50.970Z,2.83
2017-10-04T17:19:18.429Z,2.93
2017-10-04T17:21:45.905Z,2.97
2017-10-04T17:24:14.140Z,3.80
2017-10-04T17:26:41.609Z,3.10
2017-10-04T17:29:09.077Z,3.60
2017-10-04T17:31:37.313Z,3.80
2017-10-04T17:34:04.822Z,3.30
2017-10-04T17:36:32.301Z,3.93
2017-10-04T17:39:00.537Z,3.70
2017-10-04T17:41:28.105Z,3.37
2017-10-04T17:43:55.565Z,3.23
2017-10-04T17:46:23.057Z,3.40
2017-10-04T17:48:50.534Z,3.40
2017-10-04T17:51:17.992Z,3.60
2017-10-04T17:53:45.468Z,3.23
2017-10-04T17:56:12.922Z,3.80
2017-10-04T17:58:40.391Z,3.10
2017-10-04T18:01:07.954Z,4.00
2017-10-04T18:03:35.559Z,3.40
2017-10-04T18:06:03.026Z,5.20
2017-10-04T18:08:30.558Z,4.00
2017-10-04T18:10:58.939Z,3.30
2017-10-04T18:13:27.204Z,4.20
2017-10-04T18:15:54.688Z,3.43
2017-10-04T18:18:22.225Z,4.50
2017-10-04T18:20:50.517Z,3.13
2017-10-04T18:23:18.071Z,4.00
2017-10-04T18:25:45.573Z,3.45
2017-10-04T18:28:13.027Z,3.40
2017-10-04T18:30:40.497Z,3.27
2017-10-04T18:33:07.997Z,4.20
2017-10-04T18:35:36.443Z,3.73
2017-10-04T18:38:03.908Z,3.95
2017-10-04T18:40:32.154Z,3.23
2017-10-04T18:42:59.634Z,4.00
2017-10-04T18:45:27.100Z,3.83
2017-10-04T18:47:54.564Z,3.77
2017-10-04T18:50:22.805Z,3.60
2017-10-04T18:52:50.297Z,4.17
2017-10-04T18:55:17.765Z,3.20
2017-10-04T18:57:45.996Z,4.40
2017-10-04T19:00:13.459Z,3.47
2017-10-04T19:02:40.941Z,3.73
2017-10-04T19:05:09.180Z,4.07
2017-10-04T19:07:36.838Z,3.70
2017-10-04T19:10:04.305Z,4.10
2017-10-04T19:12:31.778Z,3.50
2017-10-04T19:14:59.453Z,3.87
2017-10-04T19:17:27.676Z,4.10
2017-10-04T19:19:55.144Z,3.70
2017-10-04T19:22:22.614Z,3.80
2017-10-04T19:24:50.069Z,3.50
2017-10-04T19:27:17.545Z,3.87
2017-10-04T19:29:45.097Z,3.80
2017-10-04T19:32:13.336Z,4.00
2017-10-04T19:34:40.829Z,4.40
2017-10-04T19:37:08.302Z,3.50
2017-10-04T19:39:36.618Z,3.80
2017-10-04T19:42:04.128Z,4.10
2017-10-04T19:44:32.379Z,4.37
2017-10-04T19:46:59.959Z,3.93
2017-10-04T19:49:27.502Z,4.40
2017-10-04T19:51:55.037Z,4.20
2017-10-04T19:54:22.538Z,4.40
2017-10-04T19:56:49.998Z,4.07
2017-10-04T19:59:18.261Z,4.17
2017-10-04T20:01:45.725Z,3.97
2017-10-04T20:04:13.192Z,4.67
2017-10-04T20:06:41.429Z,3.47
2017-10-04T20:09:09.015Z,4.47
2017-10-04T20:11:36.557Z,3.77
2017-10-04T20:14:04.078Z,4.30
2017-10-04T20:16:31.587Z,4.50
2017-10-04T20:18:59.132Z,4.40
2017-10-04T20:21:26.599Z,4.33
2017-10-04T20:23:54.072Z,5.20
2017-10-04T20:26:22.305Z,4.40
2017-10-04T20:28:49.782Z,4.67
2017-10-04T20:31:17.337Z,4.57
2017-10-04T20:33:44.867Z,4.30
2017-10-04T20:36:12.327Z,5.33
2017-10-04T20:38:39.789Z,4.10
2017-10-04T20:41:07.256Z,4.53
2017-10-04T20:43:34.734Z,4.90
2017-10-04T20:46:02.210Z,4.63
2017-10-04T20:48:30.441Z,4.70
2017-10-04T20:50:57.904Z,5.47
2017-10-04T20:53:25.381Z,4.77
2017-10-04T20:55:53.621Z,5.13
2017-10-04T20:58:21.090Z,4.70
2017-10-04T21:00:48.559Z,4.70
2017-10-04T21:03:16.046Z,5.63
2017-10-04T21:05:44.281Z,4.73
2017-10-04T21:08:11.752Z,5.30
2017-10-04T21:10:39.241Z,4.57
2017-10-04T21:13:06.704Z,4.73
2017-10-04T21:15:34.277Z,6.10
2017-10-04T21:18:01.745Z,4.80
2017-10-04T21:20:29.201Z,5.10
2017-10-04T21:22:56.678Z,4.43
2017-10-04T21:25:24.207Z,3.60
2017-10-04T21:27:51.768Z,5.53
2017-10-04T21:30:19.265Z,5.00
2017-10-04T21:32:46.735Z,5.30
2017-10-04T21:35:15.010Z,4.80
2017-10-04T21:37:42.470Z,4.33
2017-10-04T21:40:10.786Z,4.23
2017-10-04T21:42:38.301Z,4.80
2017-10-04T21:45:06.532Z,5.00
2017-10-04T21:47:34.034Z,5.60
2017-10-04T21:50:02.269Z,5.20
2017-10-04T21:52:29.765Z,5.43
2017-10-04T21:54:58.005Z,5.63
2017-10-04T21:57:25.480Z,4.60
2017-10-04T21:59:53.057Z,4.80
2017-10-04T22:02:21.323Z,6.17
2017-10-04T22:04:48.797Z,5.97
2017-10-04T22:07:17.024Z,5.77
2017-10-04T22:09:44.606Z,5.27
2017-10-04T22:12:12.084Z,5.10
2017-10-04T22:14:40.337Z,5.00
2017-10-04T22:17:07.798Z,5.30
2017-10-04T22:19:35.291Z,5.00
2017-10-04T22:22:02.757Z,5.03
2017-10-04T22:24:30.228Z,4.37
2017-10-04T22:26:57.708Z,4.70
2017-10-04T22:29:25.168Z,5.25
2017-10-04T22:31:52.768Z,4.87
2017-10-04T22:34:21.002Z,5.20
2017-10-04T22:36:48.477Z,5.00
2017-10-04T22:39:16.715Z,5.53
2017-10-04T22:41:44.188Z,4.78
2017-10-04T22:44:11.650Z,4.45
2017-10-04T22:46:39.173Z,5.87
2017-10-04T22:49:06.628Z,5.62
2017-10-04T22:51:34.121Z,5.18
2017-10-04T22:54:04.829Z,5.05
2017-10-04T22:56:32.338Z,5.18
2017-10-04T22:58:59.800Z,5.00
2017-10-04T23:01:28.053Z,4.97
2017-10-04T23:03:56.337Z,5.12
2017-10-04T23:06:24.564Z,4.53
2017-10-04T23:08:52.037Z,4.45
2017-10-04T23:11:19.505Z,5.22
2017-10-04T23:13:46.992Z,3.83
2017-10-04T23:16:15.224Z,4.68
2017-10-04T23:18:42.697Z,5.10
2017-10-04T23:21:10.177Z,4.35
2017-10-04T23:23:38.451Z,4.00
2017-10-04T23:26:06.693Z,5.40
2017-10-04T23:28:34.164Z,3.72
2017-10-04T23:31:01.646Z,4.57
2017-10-04T23:33:29.885Z,4.50
2017-10-04T23:35:57.362Z,3.78
2017-10-04T23:38:24.917Z,4.62
2017-10-04T23:40:53.164Z,4.70
2017-10-04T23:43:20.753Z,4.25
2017-10-04T23:45:48.230Z,4.22
2017-10-04T23:48:16.540Z,4.32
2017-10-04T23:50:44.016Z,3.70
2017-10-04T23:53:11.519Z,4.15
2017-10-04T23:55:39.803Z,3.47
2017-10-04T23:58:07.332Z,4.30
